Time;durP1;ratioP1;P1;durP2;ratioP2;P2;SDS_P1;SDS_P2;PMS_P1;PMS_P2;Temp;Humidity;BMP_temperature;BMP_pressure;BME280_temperature;BME280_humidity;BME280_pressure;Samples;Min_cycle;Max_cycle;Signal;HPM_P1;HPM_P2
2023/11/12 00:00:07;;;;;;;8.20;6.70;;;7.50;99.90;;;;;;4977347;28;20461;-80
2023/11/12 00:02:37;;;;;;;7.53;6.00;;;7.60;99.90;;;;;;4969319;28;20554;-82
2023/11/12 00:05:04;;;;;;;9.87;6.97;;;7.60;99.90;;;;;;4970059;28;20602;-80
2023/11/12 00:07:31;;;;;;;7.87;6.70;;;7.70;99.90;;;;;;4976907;28;20457;-82
2023/11/12 00:09:58;;;;;;;7.60;6.20;;;7.70;99.90;;;;;;4976750;28;20559;-84
2023/11/12 00:12:27;;;;;;;8.30;6.50;;;7.70;99.90;;;;;;4980073;28;20499;-82
2023/11/12 00:14:55;;;;;;;10.80;6.70;;;7.70;99.90;;;;;;4971865;28;20515;-83
2023/11/12 00:17:25;;;;;;;9.23;5.87;;;7.70;99.90;;;;;;4982877;28;20456;-82
2023/11/12 00:19:54;;;;;;;7.33;5.70;;;7.70;99.90;;;;;;4983782;28;20460;-83
2023/11/12 00:22:21;;;;;;;10.10;6.53;;;7.80;99.90;;;;;;4983415;28;20471;-82
2023/11/12 00:24:47;;;;;;;8.10;6.40;;;7.80;99.90;;;;;;4981190;28;20515;-84
2023/11/12 00:27:14;;;;;;;9.30;7.07;;;7.80;99.90;;;;;;4983897;28;20548;-83
2023/11/12 00:29:41;;;;;;;13.10;6.60;;;7.80;99.90;;;;;;4982146;28;20486;-84
2023/11/12 00:32:09;;;;;;;7.57;5.73;;;7.80;99.90;;;;;;4961172;28;20469;-83
2023/11/12 00:34:36;;;;;;;8.27;7.17;;;7.80;99.90;;;;;;4977251;28;21070;-83
2023/11/12 00:37:03;;;;;;;9.00;6.33;;;7.80;99.90;;;;;;4977931;28;21107;-81
2023/11/12 00:39:31;;;;;;;6.93;5.73;;;7.80;99.90;;;;;;4977612;28;20467;-82
2023/11/12 00:41:58;;;;;;;8.20;6.70;;;7.70;99.90;;;;;;4977567;28;20952;-83
2023/11/12 00:44:25;;;;;;;7.77;6.10;;;7.80;99.90;;;;;;4977372;28;20525;-83
2023/11/12 00:46:52;;;;;;;9.03;5.90;;;7.80;99.90;;;;;;4977873;28;20456;-84
2023/11/12 00:49:20;;;;;;;9.23;6.67;;;7.80;99.90;;;;;;4979461;28;20470;-84
2023/11/12 00:51:47;;;;;;;9.97;5.80;;;7.90;99.90;;;;;;4977273;28;20457;-84
2023/11/12 00:54:14;;;;;;;7.77;6.97;;;7.80;99.90;;;;;;4977249;28;20464;-83
2023/11/12 00:56:41;;;;;;;10.77;5.90;;;7.80;99.90;;;;;;4977698;28;20466;-83
2023/11/12 00:59:08;;;;;;;8.80;6.73;;;7.80;99.90;;;;;;4977123;28;20460;-83
2023/11/12 01:01:35;;;;;;;7.50;5.77;;;7.90;99.90;;;;;;4977221;28;20460;-83
2023/11/12 01:04:02;;;;;;;8.17;7.10;;;7.90;99.90;;;;;;4977356;28;20500;-83
2023/11/12 01:06:30;;;;;;;12.80;7.57;;;7.90;99.90;;;;;;4976105;28;20912;-84
2023/11/12 01:08:57;;;;;;;8.23;6.63;;;7.90;99.90;;;;;;4977578;28;20528;-83
2023/11/12 01:11:24;;;;;;;10.17;6.80;;;7.90;99.90;;;;;;4977350;28;20460;-83
2023/11/12 01:13:51;;;;;;;9.07;6.83;;;7.90;99.90;;;;;;4977683;28;20457;-83
2023/11/12 01:16:19;;;;;;;15.20;9.13;;;7.80;99.90;;;;;;4977178;28;20482;-82
2023/11/12 01:18:46;;;;;;;9.80;7.10;;;7.90;99.90;;;;;;4977715;28;20492;-81
2023/11/12 01:21:14;;;;;;;19.30;11.93;;;7.90;99.90;;;;;;4977652;28;20495;-83
2023/11/12 01:23:42;;;;;;;61.20;39.70;;;7.90;99.90;;;;;;4977700;28;20668;-84
2023/11/12 01:26:09;;;;;;;58.30;35.93;;;7.90;99.90;;;;;;4977171;28;20483;-80
2023/11/12 01:28:36;;;;;;;65.70;40.20;;;7.90;99.90;;;;;;4977963;28;20526;-83
2023/11/12 01:31:03;;;;;;;59.77;34.27;;;7.90;99.90;;;;;;4977286;28;20459;-82
2023/11/12 01:33:30;;;;;;;23.70;15.93;;;7.90;99.90;;;;;;4977892;28;20543;-83
2023/11/12 01:35:57;;;;;;;15.57;11.20;;;7.90;99.90;;;;;;4981867;28;21023;-80
2023/11/12 01:38:23;;;;;;;18.47;10.60;;;7.90;99.90;;;;;;4992499;28;20472;-80
2023/11/12 01:40:52;;;;;;;9.17;8.27;;;7.90;99.90;;;;;;4993011;28;20452;-81
2023/11/12 01:43:19;;;;;;;11.83;8.10;;;7.80;99.90;;;;;;4989957;28;20523;-82
2023/11/12 01:45:46;;;;;;;10.50;7.83;;;7.80;99.90;;;;;;4981713;28;20547;-83
2023/11/12 01:48:15;;;;;;;9.90;8.00;;;7.80;99.90;;;;;;4982512;28;20960;-80
2023/11/12 01:50:43;;;;;;;14.93;8.80;;;7.70;99.90;;;;;;4976075;28;20457;-83
2023/11/12 01:53:11;;;;;;;14.60;9.70;;;7.70;99.90;;;;;;4975329;28;20507;-82
2023/11/12 01:55:38;;;;;;;11.57;9.03;;;7.70;99.90;;;;;;4974646;28;20475;-81
2023/11/12 01:58:09;;;;;;;11.77;8.63;;;7.80;99.90;;;;;;4974618;28;20464;-83
2023/11/12 02:00:37;;;;;;;11.23;9.00;;;7.80;99.90;;;;;;4975666;28;20483;-81
2023/11/12 02:03:07;;;;;;;9.20;8.17;;;7.70;99.90;;;;;;4977474;28;20462;-81
2023/11/12 02:05:34;;;;;;;11.10;8.47;;;7.80;99.90;;;;;;4978823;28;20482;-81
2023/11/12 02:08:03;;;;;;;10.30;7.87;;;7.80;99.90;;;;;;4978364;28;20453;-82
2023/11/12 02:10:35;;;;;;;13.07;8.67;;;7.80;99.90;;;;;;4978439;28;20465;-83
2023/11/12 02:13:06;;;;;;;11.77;8.77;;;7.60;99.90;;;;;;4978951;28;20459;-83
2023/11/12 02:15:35;;;;;;;9.07;7.50;;;7.60;99.90;;;;;;4978998;28;20485;-84
2023/11/12 02:18:01;;;;;;;11.63;8.63;;;7.70;99.90;;;;;;4978830;28;20543;-84
2023/11/12 02:20:28;;;;;;;9.20;8.27;;;7.70;99.90;;;;;;4978721;28;20466;-82
2023/11/12 02:22:55;;;;;;;10.67;8.00;;;7.70;99.90;;;;;;4978762;28;20945;-83
2023/11/12 02:25:25;;;;;;;11.47;9.50;;;7.60;99.90;;;;;;4978150;28;20496;-83
2023/11/12 02:27:52;;;;;;;10.40;8.80;;;7.60;99.90;;;;;;4979318;28;20447;-83
2023/11/12 02:30:19;;;;;;;10.10;7.73;;;7.60;99.90;;;;;;4978481;28;20539;-82
2023/11/12 02:32:47;;;;;;;9.97;8.20;;;7.70;99.90;;;;;;4978898;28;20468;-83
2023/11/12 02:35:14;;;;;;;9.57;7.37;;;7.70;99.90;;;;;;4978221;28;20476;-83
2023/11/12 02:37:41;;;;;;;12.20;8.93;;;7.70;99.90;;;;;;4978549;28;20879;-82
2023/11/12 02:40:09;;;;;;;10.13;7.90;;;7.60;99.90;;;;;;4978469;28;20474;-81
2023/11/12 02:42:37;;;;;;;14.43;7.50;;;7.70;99.90;;;;;;4971028;28;20853;-82
2023/11/12 02:45:04;;;;;;;11.93;8.67;;;7.70;99.90;;;;;;4977745;28;20583;-82
2023/11/12 02:47:31;;;;;;;8.60;7.60;;;7.50;99.90;;;;;;4978354;28;20463;-84
2023/11/12 02:50:20;;;;;;;10.57;7.93;;;7.60;99.90;;;;;;4978587;28;20891;-83
2023/11/12 02:52:49;;;;;;;9.80;7.03;;;7.70;99.90;;;;;;4978685;28;20479;-82
2023/11/12 02:55:16;;;;;;;11.00;7.67;;;7.70;99.90;;;;;;4977541;28;20871;-81
2023/11/12 02:57:45;;;;;;;10.23;7.47;;;7.70;99.90;;;;;;4977817;28;20461;-82
2023/11/12 03:00:13;;;;;;;9.30;7.13;;;7.80;99.90;;;;;;4977860;28;20461;-81
2023/11/12 03:02:40;;;;;;;8.43;6.63;;;7.60;99.90;;;;;;4977729;28;20483;-81
2023/11/12 03:05:08;;;;;;;9.33;7.20;;;7.70;99.90;;;;;;4977407;28;20500;-83
2023/11/12 03:07:35;;;;;;;10.50;7.13;;;7.70;99.90;;;;;;4977430;28;20532;-83
2023/11/12 03:10:02;;;;;;;8.30;7.37;;;7.80;99.90;;;;;;4976667;28;20463;-83
2023/11/12 03:12:29;;;;;;;10.13;7.70;;;7.70;99.90;;;;;;4977760;28;20470;-81
2023/11/12 03:14:57;;;;;;;7.97;6.90;;;7.70;99.90;;;;;;4976579;28;20868;-81
2023/11/12 03:17:24;;;;;;;7.87;6.97;;;7.70;99.90;;;;;;4977198;28;20457;-81
2023/11/12 03:19:51;;;;;;;10.33;6.80;;;7.70;99.90;;;;;;4976971;28;20466;-83
2023/11/12 03:22:18;;;;;;;12.00;7.27;;;7.60;99.90;;;;;;4977077;28;20504;-81
2023/11/12 03:24:44;;;;;;;10.63;6.53;;;7.60;99.90;;;;;;4977386;28;20505;-83
2023/11/12 03:27:11;;;;;;;8.17;7.10;;;7.60;99.90;;;;;;4976783;28;20464;-83
2023/11/12 03:29:38;;;;;;;11.00;7.00;;;7.60;99.90;;;;;;4976309;28;20964;-80
2023/11/12 03:32:07;;;;;;;11.40;7.30;;;7.60;99.90;;;;;;4977105;28;20550;-81
2023/11/12 03:34:33;;;;;;;9.17;7.43;;;7.50;99.90;;;;;;4977314;28;20467;-82
2023/11/12 03:37:00;;;;;;;9.20;6.80;;;7.40;99.90;;;;;;4977531;28;20457;-83
2023/11/12 03:39:27;;;;;;;9.80;7.50;;;7.40;99.90;;;;;;4974204;28;20560;-82
2023/11/12 03:41:54;;;;;;;11.53;7.40;;;7.40;99.90;;;;;;4976152;28;20471;-83
2023/11/12 03:44:21;;;;;;;11.57;7.43;;;7.30;99.90;;;;;;4976829;28;20550;-83
2023/11/12 03:46:47;;;;;;;9.17;6.30;;;7.40;99.90;;;;;;4977277;28;20487;-80
2023/11/12 03:49:16;;;;;;;10.23;6.90;;;7.40;99.90;;;;;;4976235;28;20503;-83
2023/11/12 03:51:43;;;;;;;9.77;6.20;;;7.40;99.90;;;;;;4977053;28;21008;-81
2023/11/12 03:54:11;;;;;;;9.30;7.20;;;7.30;99.90;;;;;;4976850;28;20460;-81
2023/11/12 03:56:38;;;;;;;8.07;7.13;;;7.30;99.90;;;;;;4976444;28;20476;-83
2023/11/12 03:59:05;;;;;;;8.70;6.40;;;7.40;99.90;;;;;;4976431;28;21052;-83
2023/11/12 04:01:32;;;;;;;8.90;7.30;;;7.40;99.90;;;;;;4976720;28;20544;-83
2023/11/12 04:03:59;;;;;;;8.10;6.20;;;7.40;99.90;;;;;;4977279;28;20525;-82
2023/11/12 04:06:27;;;;;;;9.73;7.80;;;7.40;99.90;;;;;;4976566;28;20479;-83
2023/11/12 04:08:54;;;;;;;7.60;6.23;;;7.30;99.90;;;;;;4976841;28;20467;-80
2023/11/12 04:11:21;;;;;;;8.80;7.23;;;7.40;99.90;;;;;;4976368;28;20455;-81
2023/11/12 04:13:48;;;;;;;8.70;6.60;;;7.40;99.90;;;;;;4976552;28;20492;-83
2023/11/12 04:16:14;;;;;;;9.20;7.13;;;7.40;99.90;;;;;;4976540;28;21034;-80
2023/11/12 04:18:43;;;;;;;9.17;6.60;;;7.40;99.90;;;;;;4976294;28;20482;-83
2023/11/12 04:21:10;;;;;;;8.93;6.03;;;7.40;99.90;;;;;;4976725;28;20489;-82
2023/11/12 04:23:38;;;;;;;9.57;7.10;;;7.40;99.90;;;;;;4976626;28;20534;-83
2023/11/12 04:26:05;;;;;;;9.67;7.37;;;7.30;99.90;;;;;;4975108;28;20499;-81
2023/11/12 04:28:32;;;;;;;9.30;6.80;;;7.30;99.90;;;;;;4976213;28;21011;-82
2023/11/12 04:30:59;;;;;;;10.60;6.57;;;7.30;99.90;;;;;;4976454;28;20957;-83
2023/11/12 04:33:25;;;;;;;8.43;6.50;;;7.40;99.90;;;;;;4976632;28;20523;-82
2023/11/12 04:35:52;;;;;;;8.03;6.10;;;7.30;99.90;;;;;;4976683;28;20476;-83
2023/11/12 04:38:20;;;;;;;9.07;6.87;;;7.40;99.90;;;;;;4976337;28;20456;-83
2023/11/12 04:40:48;;;;;;;8.17;6.70;;;7.30;99.90;;;;;;4975937;28;20490;-81
2023/11/12 04:43:15;;;;;;;8.00;6.93;;;7.40;99.90;;;;;;4976572;28;20455;-82
2023/11/12 04:45:42;;;;;;;8.07;6.53;;;7.40;99.90;;;;;;4976217;28;20583;-82
2023/11/12 04:48:09;;;;;;;9.60;7.13;;;7.50;99.90;;;;;;4975750;28;20465;-82
2023/11/12 04:50:38;;;;;;;10.80;7.60;;;7.40;99.90;;;;;;4975922;28;20452;-82
2023/11/12 04:53:05;;;;;;;13.40;7.23;;;7.50;99.90;;;;;;4976228;28;20469;-83
2023/11/12 04:55:32;;;;;;;10.17;6.57;;;7.40;99.90;;;;;;4976373;28;20847;-81
2023/11/12 04:58:01;;;;;;;8.70;7.80;;;7.50;99.90;;;;;;4969450;28;20548;-82
2023/11/12 05:00:28;;;;;;;9.67;6.30;;;7.40;99.90;;;;;;4974896;28;20468;-83
2023/11/12 05:02:55;;;;;;;7.13;5.93;;;7.50;99.90;;;;;;4976393;28;20460;-83
2023/11/12 05:05:21;;;;;;;8.10;7.07;;;7.50;99.90;;;;;;4975627;28;21053;-80
2023/11/12 05:07:48;;;;;;;7.67;5.73;;;7.50;99.90;;;;;;4975184;28;20789;-80
2023/11/12 05:10:15;;;;;;;9.17;5.77;;;7.50;99.90;;;;;;4973821;28;20457;-82
2023/11/12 05:12:42;;;;;;;11.17;6.43;;;7.50;99.90;;;;;;4976333;28;20474;-81
2023/11/12 05:15:11;;;;;;;13.43;6.30;;;7.50;99.90;;;;;;4976066;28;20478;-80
2023/11/12 05:17:38;;;;;;;8.20;6.23;;;7.50;99.90;;;;;;4975505;28;20550;-82
2023/11/12 05:20:05;;;;;;;7.37;5.83;;;7.60;99.90;;;;;;4974933;28;20464;-81
2023/11/12 05:22:32;;;;;;;8.27;6.17;;;7.50;99.90;;;;;;4975773;28;20908;-80
2023/11/12 05:24:59;;;;;;;6.83;6.13;;;7.40;99.90;;;;;;4967189;28;20492;-82
2023/11/12 05:27:26;;;;;;;6.30;5.50;;;7.40;99.90;;;;;;4975339;28;20995;-83
2023/11/12 05:29:53;;;;;;;7.50;5.57;;;7.40;99.90;;;;;;4975376;28;20983;-81
2023/11/12 05:32:21;;;;;;;9.13;6.40;;;7.40;99.90;;;;;;4975587;28;20547;-83
2023/11/12 05:34:48;;;;;;;5.90;4.93;;;7.40;99.90;;;;;;4975538;28;20480;-82
2023/11/12 05:37:16;;;;;;;7.07;5.47;;;7.30;99.90;;;;;;4975067;28;20828;-80
2023/11/12 05:39:42;;;;;;;7.47;5.73;;;7.30;99.90;;;;;;4974882;28;20472;-80
2023/11/12 05:42:09;;;;;;;10.03;6.00;;;7.20;99.90;;;;;;4975467;28;20868;-78
2023/11/12 05:44:36;;;;;;;7.77;5.13;;;7.10;99.90;;;;;;4975623;28;20521;-82
2023/11/12 05:47:03;;;;;;;9.83;6.07;;;7.00;99.90;;;;;;4975541;28;20460;-80
2023/11/12 05:49:31;;;;;;;8.83;6.00;;;7.00;99.90;;;;;;4975200;28;20463;-83
2023/11/12 05:51:58;;;;;;;7.80;5.00;;;6.90;99.90;;;;;;4975670;28;20971;-82
2023/11/12 05:54:24;;;;;;;6.07;5.43;;;7.00;99.90;;;;;;4975561;28;20468;-82
2023/11/12 05:56:51;;;;;;;5.93;4.73;;;6.90;99.90;;;;;;4975546;28;20463;-80
2023/11/12 05:59:18;;;;;;;6.93;5.90;;;6.90;99.90;;;;;;4974895;28;20474;-83
2023/11/12 06:01:45;;;;;;;7.93;5.30;;;6.80;99.90;;;;;;4975403;28;20466;-82
2023/11/12 06:04:13;;;;;;;8.20;5.37;;;6.80;99.90;;;;;;4975723;28;20466;-80
2023/11/12 06:06:41;;;;;;;8.00;6.00;;;6.70;99.90;;;;;;4986197;28;20583;-81
2023/11/12 06:09:08;;;;;;;7.10;5.90;;;6.60;99.90;;;;;;4987238;28;20546;-83
2023/11/12 06:11:37;;;;;;;9.93;6.17;;;6.70;99.90;;;;;;4987785;28;20448;-83
2023/11/12 06:14:04;;;;;;;7.60;5.70;;;6.70;99.90;;;;;;4986715;28;20451;-79
2023/11/12 06:16:31;;;;;;;6.53;5.40;;;6.70;99.90;;;;;;4983738;28;20475;-81
2023/11/12 06:18:58;;;;;;;11.97;5.47;;;6.70;99.90;;;;;;4991158;28;20513;-82
2023/11/12 06:21:25;;;;;;;7.20;5.60;;;6.70;99.90;;;;;;4991116;28;20459;-81
2023/11/12 06:23:53;;;;;;;9.87;5.33;;;6.70;99.90;;;;;;4990951;28;20461;-81
2023/11/12 06:26:21;;;;;;;9.23;6.00;;;6.70;99.90;;;;;;4990747;28;20576;-82
2023/11/12 06:28:48;;;;;;;6.87;5.00;;;6.70;99.90;;;;;;4991009;28;20463;-82
2023/11/12 06:31:16;;;;;;;6.70;4.23;;;6.70;99.90;;;;;;4990677;28;20475;-81
2023/11/12 06:33:43;;;;;;;6.77;5.33;;;6.70;99.90;;;;;;4987595;28;20466;-84
2023/11/12 06:36:13;;;;;;;9.87;6.43;;;6.70;99.90;;;;;;4982850;28;20539;-82
2023/11/12 06:38:41;;;;;;;7.53;5.60;;;6.80;99.90;;;;;;4970741;28;20455;-84
2023/11/12 06:41:10;;;;;;;5.80;5.07;;;6.70;99.90;;;;;;4977563;28;20852;-86
2023/11/12 06:43:37;;;;;;;10.77;5.70;;;6.80;99.90;;;;;;4972163;28;20454;-84
2023/11/12 06:46:05;;;;;;;6.90;5.47;;;6.70;99.90;;;;;;4969988;28;20499;-84
2023/11/12 06:48:31;;;;;;;6.37;4.77;;;6.80;99.90;;;;;;4977121;28;20455;-85
2023/11/12 06:50:58;;;;;;;5.47;4.97;;;6.80;99.90;;;;;;4974127;28;20471;-85
2023/11/12 06:53:25;;;;;;;8.23;5.47;;;6.80;99.90;;;;;;4971710;28;20992;-84
2023/11/12 06:55:52;;;;;;;7.60;5.50;;;6.90;99.90;;;;;;4980249;28;20493;-85
2023/11/12 06:58:20;;;;;;;7.40;4.40;;;6.90;99.90;;;;;;4972703;28;20563;-83
2023/11/12 07:00:47;;;;;;;6.60;5.20;;;7.00;99.90;;;;;;4981787;28;20571;-84
2023/11/12 07:03:14;;;;;;;6.00;5.20;;;7.00;99.90;;;;;;4980907;28;20463;-84
2023/11/12 07:05:41;;;;;;;6.90;4.87;;;7.10;99.90;;;;;;4972719;28;20490;-83
2023/11/12 07:08:08;;;;;;;6.60;5.40;;;7.00;99.90;;;;;;4972812;28;20464;-83
2023/11/12 07:10:35;;;;;;;7.90;5.43;;;7.00;99.90;;;;;;4969610;28;20501;-83
2023/11/12 07:13:02;;;;;;;5.67;4.80;;;7.10;99.90;;;;;;4970444;28;20459;-85
2023/11/12 07:15:30;;;;;;;6.37;5.00;;;7.20;99.90;;;;;;4980511;28;20475;-85
2023/11/12 07:17:56;;;;;;;7.10;4.60;;;7.20;99.90;;;;;;4980781;28;20524;-84
2023/11/12 07:20:28;;;;;;;4.53;3.73;;;7.20;99.90;;;;;;4980604;28;20466;-85
2023/11/12 07:22:56;;;;;;;5.70;5.10;;;7.20;99.90;;;;;;4980673;28;20956;-85
2023/11/12 07:25:23;;;;;;;6.10;4.60;;;7.20;99.90;;;;;;4980283;28;20619;-85
2023/11/12 07:27:51;;;;;;;7.07;5.23;;;7.10;99.90;;;;;;4979884;28;20850;-84
2023/11/12 07:30:18;;;;;;;6.60;5.00;;;7.10;99.90;;;;;;4977575;28;20463;-85
2023/11/12 07:32:46;;;;;;;5.47;4.67;;;7.00;99.90;;;;;;4975822;28;20969;-82
2023/11/12 07:35:14;;;;;;;7.80;5.00;;;7.00;99.90;;;;;;4976776;28;20483;-85
2023/11/12 07:37:41;;;;;;;6.40;4.73;;;7.00;99.90;;;;;;4979899;28;21103;-83
2023/11/12 07:40:20;;;;;;;5.53;4.60;;;6.90;99.90;;;;;;4976846;28;20462;-82
2023/11/12 07:42:47;;;;;;;4.93;4.43;;;6.80;99.90;;;;;;4974499;28;20587;-84
2023/11/12 07:45:15;;;;;;;5.20;4.53;;;6.80;99.90;;;;;;4979685;28;20495;-85
2023/11/12 07:47:41;;;;;;;8.97;4.87;;;6.80;99.90;;;;;;4980150;28;20467;-85
2023/11/12 07:50:11;;;;;;;6.50;4.50;;;6.80;99.90;;;;;;4979581;28;20463;-85
2023/11/12 07:52:38;;;;;;;6.87;4.80;;;6.70;99.90;;;;;;4980279;28;20460;-84
2023/11/12 07:55:05;;;;;;;8.20;4.37;;;6.70;99.90;;;;;;4974875;28;20476;-82
2023/11/12 07:57:33;;;;;;;7.87;4.57;;;6.70;99.90;;;;;;4978836;28;20451;-85
2023/11/12 08:00:00;;;;;;;5.57;4.63;;;6.70;99.90;;;;;;4976233;28;20503;-84
2023/11/12 08:02:28;;;;;;;7.87;5.27;;;6.70;99.90;;;;;;4974003;28;20463;-84
2023/11/12 08:04:55;;;;;;;8.63;4.60;;;6.60;99.90;;;;;;4980987;28;20482;-84
2023/11/12 08:07:23;;;;;;;5.10;4.60;;;6.60;99.90;;;;;;4978971;28;20817;-83
2023/11/12 08:09:50;;;;;;;4.60;3.60;;;6.60;99.90;;;;;;4978047;28;20459;-85
2023/11/12 08:12:17;;;;;;;5.13;4.50;;;6.70;99.90;;;;;;4973266;28;20841;-84
2023/11/12 08:14:44;;;;;;;7.47;5.30;;;6.80;99.90;;;;;;4980526;28;20482;-84
2023/11/12 08:17:12;;;;;;;5.07;3.80;;;6.80;99.90;;;;;;4979381;28;20954;-82
2023/11/12 08:19:38;;;;;;;4.83;4.10;;;6.80;99.90;;;;;;4979481;28;20469;-85
2023/11/12 08:22:08;;;;;;;5.60;4.20;;;6.90;99.90;;;;;;4972211;28;20966;-85
2023/11/12 08:24:38;;;;;;;4.33;3.87;;;6.90;99.90;;;;;;4972840;28;20470;-84
2023/11/12 08:27:07;;;;;;;4.70;3.30;;;7.00;99.90;;;;;;4979896;28;20875;-85
2023/11/12 08:29:35;;;;;;;5.03;3.27;;;7.10;99.90;;;;;;4979290;28;20461;-85
2023/11/12 08:32:02;;;;;;;4.27;3.40;;;7.20;99.90;;;;;;4978597;28;20846;-84
2023/11/12 08:34:29;;;;;;;6.00;3.50;;;7.20;99.90;;;;;;4978976;28;20590;-84
2023/11/12 08:36:56;;;;;;;4.90;4.23;;;7.30;99.90;;;;;;4978774;28;20462;-84
2023/11/12 08:39:24;;;;;;;6.87;4.27;;;7.40;99.90;;;;;;4970985;28;20462;-83
2023/11/12 08:41:52;;;;;;;4.97;3.80;;;7.50;99.90;;;;;;4979158;28;20929;-84
2023/11/12 08:44:19;;;;;;;4.77;3.50;;;7.50;99.90;;;;;;4978699;28;20465;-84
2023/11/12 08:46:46;;;;;;;5.47;3.30;;;7.60;99.90;;;;;;4974995;28;20484;-83
2023/11/12 08:49:12;;;;;;;10.00;3.90;;;7.80;99.90;;;;;;4978643;28;20476;-82
2023/11/12 08:51:39;;;;;;;4.90;3.00;;;8.00;99.90;;;;;;4984533;28;20459;-82
2023/11/12 08:54:08;;;;;;;3.80;3.10;;;8.20;99.90;;;;;;4988549;28;20548;-84
2023/11/12 08:56:35;;;;;;;3.30;2.93;;;8.40;99.90;;;;;;4989037;28;20484;-80
2023/11/12 08:59:03;;;;;;;4.30;2.97;;;8.70;99.90;;;;;;4992735;28;20470;-80
2023/11/12 09:01:33;;;;;;;3.60;2.63;;;9.00;92.80;;;;;;4990903;28;20463;-86
2023/11/12 09:04:00;;;;;;;4.60;3.00;;;9.20;57.40;;;;;;4989071;28;20458;-82
2023/11/12 09:06:27;;;;;;;9.17;3.57;;;9.40;15.60;;;;;;4991189;28;20485;-81
2023/11/12 09:08:55;;;;;;;5.30;2.70;;;9.70;1.00;;;;;;4982765;28;20457;-82
2023/11/12 09:11:22;;;;;;;3.43;2.70;;;9.70;1.00;;;;;;4979883;28;20467;-83
2023/11/12 09:13:48;;;;;;;3.73;2.83;;;9.80;1.00;;;;;;4980031;28;20562;-83
2023/11/12 09:16:17;;;;;;;5.20;3.13;;;9.90;1.00;;;;;;4975792;28;20549;-83
2023/11/12 09:18:44;;;;;;;6.23;2.60;;;10.00;1.00;;;;;;4972104;28;20542;-81
2023/11/12 09:21:11;;;;;;;7.83;2.60;;;10.00;1.00;;;;;;4973163;28;20462;-83
2023/11/12 09:23:39;;;;;;;4.87;2.87;;;10.10;1.00;;;;;;4979461;28;20461;-84
2023/11/12 09:26:06;;;;;;;2.83;2.20;;;10.00;1.00;;;;;;4979301;28;20536;-84
2023/11/12 09:28:32;;;;;;;3.40;2.07;;;10.10;1.00;;;;;;4976516;28;20472;-84
2023/11/12 09:30:59;;;;;;;3.37;2.33;;;10.20;1.00;;;;;;4971375;28;20542;-84
2023/11/12 09:33:27;;;;;;;8.10;2.67;;;10.30;1.00;;;;;;4974765;28;20465;-84
2023/11/12 09:35:54;;;;;;;3.10;2.43;;;10.30;1.00;;;;;;4977311;28;20930;-84
2023/11/12 09:38:21;;;;;;;4.27;2.40;;;10.30;1.00;;;;;;4978907;28;20465;-83
2023/11/12 09:40:48;;;;;;;4.90;2.73;;;10.20;1.00;;;;;;4979433;28;21035;-82
2023/11/12 09:43:15;;;;;;;4.40;2.50;;;9.80;1.00;;;;;;4979027;28;20518;-84
2023/11/12 09:45:45;;;;;;;6.80;2.47;;;9.80;1.00;;;;;;4978969;28;20518;-85
2023/11/12 09:48:21;;;;;;;5.03;2.23;;;9.70;1.00;;;;;;4978596;28;20538;-85
2023/11/12 09:50:49;;;;;;;2.97;2.27;;;9.70;1.00;;;;;;4980557;28;20627;-85
2023/11/12 09:53:17;;;;;;;3.77;2.50;;;9.50;1.00;;;;;;4977946;28;21017;-85
2023/11/12 09:55:45;;;;;;;4.97;2.23;;;9.50;1.00;;;;;;4974510;28;20489;-85
2023/11/12 09:58:12;;;;;;;4.33;2.20;;;9.40;1.00;;;;;;4976774;28;20816;-84
2023/11/12 10:00:39;;;;;;;4.87;3.10;;;9.40;1.00;;;;;;4978030;28;20478;-83
2023/11/12 10:03:08;;;;;;;3.50;2.50;;;9.40;1.00;;;;;;4978345;28;20508;-85
2023/11/12 10:05:35;;;;;;;3.40;2.30;;;9.40;1.00;;;;;;4978104;28;20474;-85
2023/11/12 10:08:05;;;;;;;3.57;2.50;;;9.40;1.00;;;;;;4977493;28;20469;-84
2023/11/12 10:10:33;;;;;;;4.20;2.80;;;9.40;1.00;;;;;;4978180;28;20448;-85
2023/11/12 10:13:04;;;;;;;3.60;2.50;;;9.40;1.00;;;;;;4977764;28;20486;-85
2023/11/12 10:15:34;;;;;;;4.80;2.50;;;9.40;1.00;;;;;;4978176;28;20479;-85
2023/11/12 10:18:01;;;;;;;3.97;2.60;;;9.40;1.00;;;;;;4978014;28;20453;-84
2023/11/12 10:20:29;;;;;;;4.07;2.37;;;9.40;1.00;;;;;;4974396;28;20466;-82
2023/11/12 10:22:56;;;;;;;5.10;1.80;;;9.50;1.00;;;;;;4970474;28;20459;-85
2023/11/12 10:25:42;;;;;;;8.23;2.20;;;9.50;1.00;;;;;;4976985;28;20486;-85
2023/11/12 10:28:09;;;;;;;3.70;2.27;;;9.60;1.00;;;;;;4970672;28;20449;-83
2023/11/12 10:30:37;;;;;;;2.93;2.07;;;9.70;1.00;;;;;;4971743;28;20965;-84
2023/11/12 10:33:18;;;;;;;3.30;1.90;;;9.70;1.00;;;;;;4974402;28;20557;-83
2023/11/12 10:35:45;;;;;;;5.00;2.30;;;9.80;1.00;;;;;;4968236;28;20628;-85
2023/11/12 10:38:15;;;;;;;3.30;2.50;;;9.90;1.00;;;;;;4981250;28;20501;-83
2023/11/12 10:40:58;;;;;;;2.73;1.67;;;10.00;1.00;;;;;;4972081;28;20451;-84
2023/11/12 10:43:27;;;;;;;4.77;2.47;;;10.20;1.00;;;;;;4971765;28;20458;-84
2023/11/12 10:45:58;;;;;;;3.17;2.23;;;10.10;1.00;;;;;;4979451;28;20532;-83
2023/11/12 10:48:33;;;;;;;2.50;1.80;;;10.30;1.00;;;;;;4975490;28;20991;-83
2023/11/12 10:51:01;;;;;;;4.13;2.53;;;10.40;1.00;;;;;;4966188;28;20459;-85
2023/11/12 10:53:30;;;;;;;5.10;2.20;;;10.40;99.90;;;;;;4979500;28;21133;-84
2023/11/12 10:56:00;;;;;;;2.47;1.67;;;10.50;99.90;;;;;;4980534;28;20475;-84
2023/11/12 10:58:28;;;;;;;3.77;1.60;;;10.70;99.90;;;;;;4973541;28;20467;-85
2023/11/12 11:00:58;;;;;;;5.17;2.60;;;10.90;99.90;;;;;;4980373;28;20462;-84
2023/11/12 11:03:27;;;;;;;2.97;1.77;;;11.10;99.90;;;;;;4975177;28;20459;-83
2023/11/12 11:05:55;;;;;;;4.80;2.40;;;11.30;99.90;;;;;;4967414;28;20927;-83
2023/11/12 11:08:22;;;;;;;3.07;2.03;;;11.70;1.00;;;;;;4976290;28;20464;-85
2023/11/12 11:10:49;;;;;;;3.70;2.20;;;12.30;1.00;;;;;;4977289;28;20920;-84
2023/11/12 11:13:17;;;;;;;4.63;1.93;;;13.60;56.20;;;;;;4972134;28;20547;-84
2023/11/12 11:15:45;;;;;;;3.77;2.00;;;14.40;99.90;;;;;;4976790;28;20477;-83
2023/11/12 11:18:50;;;;;;;2.40;1.50;;;15.60;1.00;;;;;;4980568;28;20466;-83
2023/11/12 11:21:19;;;;;;;4.13;1.60;;;17.70;1.00;;;;;;4975787;28;20443;-85
2023/11/12 11:23:52;;;;;;;2.70;1.30;;;20.10;1.00;;;;;;4978612;28;20453;-84
2023/11/12 11:26:34;;;;;;;3.53;1.60;;;21.30;1.00;;;;;;4981752;28;20476;-86
2023/11/12 11:30:02;;;;;;;2.37;1.60;;;22.30;1.00;;;;;;4981462;28;20521;-85
2023/11/12 11:33:30;;;;;;;;;;;;;;;;;;;;;
2023/11/12 11:36:34;;;;;;;4.63;1.97;;;24.40;1.00;;;;;;4966780;28;20570;-84
2023/11/12 11:39:25;;;;;;;2.10;1.30;;;24.50;1.00;;;;;;4976341;28;20462;-84
2023/11/12 11:42:24;;;;;;;2.73;1.50;;;24.00;1.00;;;;;;4976473;28;20476;-83
2023/11/12 11:45:23;;;;;;;3.03;1.60;;;23.70;1.00;;;;;;5165091;23;20453;-85
2023/11/12 11:48:06;;;;;;;2.30;1.63;;;23.50;1.00;;;;;;4955507;29;20895;-85
2023/11/12 11:51:04;;;;;;;4.77;1.70;;;23.00;1.00;;;;;;4954508;29;20945;-83
2023/11/12 11:53:31;;;;;;;3.80;1.43;;;23.00;1.00;;;;;;4931742;29;20987;-82
2023/11/12 11:56:06;;;;;;;4.50;1.30;;;24.10;1.00;;;;;;4945436;29;20506;-85
2023/11/12 11:58:50;;;;;;;4.33;1.30;;;25.50;1.00;;;;;;4956654;29;20464;-84
2023/11/12 12:04:29;;;;;;;2.27;1.30;;;26.00;1.00;;;;;;4953237;29;20464;-84
2023/11/12 12:06:56;;;;;;;2.27;1.47;;;24.60;1.00;;;;;;4954589;29;20581;-84
2023/11/12 12:09:24;;;;;;;4.63;1.57;;;23.00;1.00;;;;;;4959518;29;21063;-84
2023/11/12 12:15:41;;;;;;;2.77;1.60;;;20.60;1.00;;;;;;4906071;29;20477;-83
2023/11/12 12:18:19;;;;;;;2.33;1.20;;;19.80;1.00;;;;;;4895159;29;20459;-80
2023/11/12 12:21:34;;;;;;;2.37;1.30;;;19.60;1.00;;;;;;4945529;29;20523;-84
2023/11/12 12:24:01;;;;;;;2.30;1.40;;;19.20;1.00;;;;;;4953975;29;20458;-82
2023/11/12 12:33:00;;;;;;;2.70;1.30;;;17.90;1.00;;;;;;4946259;29;20466;-82
2023/11/12 12:39:32;;;;;;;2.90;1.50;;;16.80;1.00;;;;;;4937532;29;20540;-82
2023/11/12 12:42:04;;;;;;;9.20;2.00;;;16.00;1.00;;;;;;4899515;29;20463;-83
2023/11/12 12:48:36;;;;;;;2.20;1.67;;;14.60;99.90;;;;;;4949207;28;20513;-82
2023/11/12 12:54:29;;;;;;;3.30;1.50;;;13.60;1.00;;;;;;4951591;29;20444;-82
2023/11/12 12:56:56;;;;;;;2.57;1.60;;;13.30;36.40;;;;;;4955248;29;20462;-82
2023/11/12 12:59:24;;;;;;;3.10;1.63;;;13.00;99.90;;;;;;4956482;29;20960;-81
2023/11/12 13:01:56;;;;;;;2.93;1.20;;;12.90;1.00;;;;;;4957394;29;20976;-84
2023/11/12 13:10:43;;;;;;;2.90;1.17;;;13.40;99.90;;;;;;4893076;29;20538;-84
2023/11/12 13:13:30;;;;;;;2.43;1.60;;;13.40;1.00;;;;;;4946912;29;20463;-82
2023/11/12 13:16:24;;;;;;;2.40;1.33;;;13.50;1.00;;;;;;4891818;29;20485;-82
2023/11/12 13:22:14;;;;;;;2.40;0.97;;;13.50;1.00;;;;;;4927436;29;20450;-82
2023/11/12 13:28:11;;;;;;;2.77;2.03;;;13.40;1.00;;;;;;4904000;29;20542;-85
2023/11/12 13:30:38;;;;;;;3.40;1.53;;;13.30;99.90;;;;;;4951551;29;20492;-84
2023/11/12 13:33:07;;;;;;;3.80;1.73;;;13.10;99.90;;;;;;4943012;29;20449;-83
2023/11/12 13:35:34;;;;;;;6.20;2.10;;;12.60;1.00;;;;;;4944469;29;20481;-87
2023/11/12 13:38:01;;;;;;;3.30;1.50;;;12.50;1.00;;;;;;4953839;29;20860;-84
2023/11/12 13:40:30;;;;;;;5.50;1.70;;;12.30;99.90;;;;;;4958068;29;20833;-84
2023/11/12 13:42:57;;;;;;;6.20;2.30;;;12.10;99.90;;;;;;4958390;29;20464;-86